createdAt,value
2022-08-02T00:00:14.605Z,74.80
2022-08-02T00:02:46.417Z,75.40
2022-08-02T00:05:14.184Z,74.90
2022-08-02T00:07:41.659Z,75.10
2022-08-02T00:10:11.173Z,74.60
2022-08-02T00:12:39.127Z,74.20
2022-08-02T00:15:07.687Z,74.10
2022-08-02T00:17:34.637Z,74.20
2022-08-02T00:20:02.561Z,74.40
2022-08-02T00:22:31.144Z,75.00
2022-08-02T00:24:58.491Z,75.60
2022-08-02T00:27:25.498Z,76.30
2022-08-02T00:29:53.645Z,76.60
2022-08-02T00:32:22.368Z,76.70
2022-08-02T00:34:49.782Z,76.80
2022-08-02T00:37:16.941Z,76.40
2022-08-02T00:39:43.943Z,76.60
2022-08-02T00:42:14.058Z,76.60
2022-08-02T00:44:41.683Z,76.90
2022-08-02T00:47:09.569Z,77.30
2022-08-02T00:49:36.774Z,77.20
2022-08-02T00:52:04.246Z,78.20
2022-08-02T00:54:31.256Z,78.80
2022-08-02T00:56:58.135Z,78.90
2022-08-02T00:59:25.187Z,79.60
2022-08-02T01:01:56.893Z,79.40
2022-08-02T01:04:31.052Z,80.60
2022-08-02T01:07:11.978Z,80.80
2022-08-02T01:09:45.650Z,81.30
2022-08-02T01:12:13.865Z,80.30
2022-08-02T01:14:43.870Z,80.90
2022-08-02T01:17:37.364Z,80.90
2022-08-02T01:20:43.878Z,80.70
2022-08-02T01:23:35.588Z,80.90
2022-08-02T01:26:25.316Z,81.30
2022-08-02T01:29:25.056Z,81.50
2022-08-02T01:32:08.274Z,82.70
2022-08-02T01:34:47.286Z,82.40
2022-08-02T01:37:20.245Z,82.80
2022-08-02T01:39:51.696Z,81.90
2022-08-02T01:42:21.561Z,82.10
2022-08-02T01:44:50.859Z,82.70
2022-08-02T01:47:23.014Z,84.00
2022-08-02T01:49:53.011Z,82.80
2022-08-02T01:52:23.885Z,83.20
2022-08-02T01:55:03.721Z,82.70
2022-08-02T01:57:51.200Z,82.40
2022-08-02T02:00:19.633Z,83.10
2022-08-02T02:02:49.170Z,83.30
2022-08-02T02:05:19.273Z,83.60
2022-08-02T02:07:49.303Z,84.10
2022-08-02T02:10:19.167Z,83.80
2022-08-02T02:15:44.560Z,83.30
2022-08-02T02:18:17.116Z,83.10
2022-08-02T02:20:44.255Z,83.00
2022-08-02T02:23:13.433Z,83.30
2022-08-02T02:25:46.566Z,83.60
2022-08-02T02:28:32.903Z,83.70
2022-08-02T02:31:13.099Z,83.00
2022-08-02T02:33:52.707Z,83.60
2022-08-02T02:36:22.368Z,83.40
2022-08-02T02:38:51.850Z,83.20
2022-08-02T02:41:19.252Z,83.50
2022-08-02T02:43:47.657Z,82.80
2022-08-02T02:46:17.587Z,83.10
2022-08-02T02:48:45.235Z,83.00
2022-08-02T02:51:13.840Z,83.00
2022-08-02T02:54:30.418Z,82.70
2022-08-02T02:56:31.028Z,83.50
2022-08-02T02:59:00.697Z,83.30
2022-08-02T03:01:56.289Z,84.20
2022-08-02T03:04:16.593Z,84.20
2022-08-02T03:06:43.709Z,85.10
2022-08-02T03:09:11.567Z,85.50
2022-08-02T03:11:40.272Z,85.10
2022-08-02T03:14:11.366Z,85.60
2022-08-02T03:16:47.821Z,84.60
2022-08-02T03:19:15.724Z,84.30
2022-08-02T03:21:43.596Z,84.60
2022-08-02T03:24:11.247Z,85.10
2022-08-02T03:26:38.687Z,85.20
2022-08-02T03:29:09.752Z,86.10
2022-08-02T03:31:40.924Z,86.60
2022-08-02T03:34:08.819Z,87.10
2022-08-02T03:36:36.511Z,87.50
2022-08-02T03:39:05.111Z,87.00
2022-08-02T03:41:33.271Z,86.90
2022-08-02T03:44:00.840Z,87.00
2022-08-02T03:46:28.001Z,87.20
2022-08-02T03:48:55.946Z,87.40
2022-08-02T03:51:24.085Z,86.50
2022-08-02T03:53:51.096Z,86.20
2022-08-02T03:56:18.596Z,85.80
2022-08-02T03:58:49.012Z,86.10
2022-08-02T04:01:16.701Z,85.70
2022-08-02T04:03:43.882Z,85.90
2022-08-02T04:06:10.837Z,86.60
2022-08-02T04:08:38.872Z,86.60
2022-08-02T04:11:25.527Z,86.60
2022-08-02T04:13:56.807Z,86.80
2022-08-02T04:16:42.836Z,86.90
2022-08-02T04:19:15.410Z,87.50
2022-08-02T04:21:51.557Z,87.60
2022-08-02T04:24:32.171Z,87.80
2022-08-02T04:27:06.837Z,87.90
2022-08-02T04:29:48.769Z,88.20
2022-08-02T04:32:17.250Z,87.80
2022-08-02T04:35:11.352Z,87.20
2022-08-02T04:37:32.962Z,87.40
2022-08-02T04:40:00.366Z,88.00
2022-08-02T04:42:27.455Z,88.50
2022-08-02T04:44:54.798Z,88.00
2022-08-02T04:47:54.348Z,87.00
2022-08-02T04:50:09.705Z,87.00
2022-08-02T04:52:36.589Z,86.20
2022-08-02T04:55:03.777Z,86.40
2022-08-02T04:57:52.945Z,86.50
2022-08-02T05:00:20.518Z,87.60
2022-08-02T05:02:48.307Z,87.70
2022-08-02T05:05:15.849Z,87.40
2022-08-02T05:07:42.861Z,88.00
2022-08-02T05:10:10.268Z,88.10
2022-08-02T05:12:40.776Z,87.60
2022-08-02T05:15:09.190Z,87.90
2022-08-02T05:17:39.908Z,88.20
2022-08-02T05:20:18.897Z,88.40
2022-08-02T05:22:46.524Z,88.40
2022-08-02T05:25:13.727Z,88.40
2022-08-02T05:27:40.993Z,87.90
2022-08-02T05:30:08.516Z,87.40
2022-08-02T05:32:42.321Z,87.90
2022-08-02T05:35:09.565Z,88.10
2022-08-02T05:37:36.845Z,88.20
2022-08-02T05:40:04.574Z,88.10
2022-08-02T05:42:39.807Z,88.10
2022-08-02T05:45:07.089Z,87.70
2022-08-02T05:47:34.533Z,87.80
2022-08-02T05:50:01.857Z,87.80
2022-08-02T05:52:43.612Z,88.10
2022-08-02T05:55:17.381Z,87.50
2022-08-02T05:58:02.435Z,87.60
2022-08-02T06:00:33.528Z,87.80
2022-08-02T06:03:16.872Z,88.10
2022-08-02T06:06:00.272Z,87.10
2022-08-02T06:08:48.546Z,86.00
2022-08-02T06:11:18.149Z,86.20
2022-08-02T06:13:46.573Z,85.30
2022-08-02T06:16:14.030Z,85.50
2022-08-02T06:18:43.536Z,86.20
2022-08-02T06:22:35.044Z,85.50
2022-08-02T06:23:59.517Z,84.90
2022-08-02T06:26:29.610Z,85.20
2022-08-02T06:28:57.947Z,85.30
2022-08-02T06:31:25.331Z,85.30
2022-08-02T06:33:52.322Z,85.70
2022-08-02T06:36:30.660Z,85.20
2022-08-02T06:39:37.015Z,85.10
2022-08-02T06:42:12.169Z,83.80
2022-08-02T06:44:49.662Z,84.20
2022-08-02T06:47:18.075Z,84.60
2022-08-02T06:49:51.963Z,85.10
2022-08-02T06:52:26.891Z,84.90
2022-08-02T06:54:56.888Z,84.80
2022-08-02T06:57:23.943Z,85.00
2022-08-02T06:59:51.171Z,85.20
2022-08-02T07:02:18.166Z,85.20
2022-08-02T07:04:45.349Z,85.80
2022-08-02T07:07:12.377Z,85.30
2022-08-02T07:09:39.485Z,85.80
2022-08-02T07:12:23.036Z,85.40
2022-08-02T07:14:49.940Z,86.00
2022-08-02T07:17:16.940Z,86.30
2022-08-02T07:19:43.829Z,85.90
2022-08-02T07:22:12.963Z,86.10
2022-08-02T07:24:40.815Z,86.50
2022-08-02T07:27:12.373Z,87.10
2022-08-02T07:29:45.101Z,87.00
2022-08-02T07:32:13.518Z,87.10
2022-08-02T07:34:42.433Z,86.60
2022-08-02T07:37:23.462Z,86.60
2022-08-02T07:39:57.557Z,86.20
2022-08-02T07:42:24.781Z,86.50
2022-08-02T07:44:52.234Z,86.70
2022-08-02T07:47:19.215Z,86.70
2022-08-02T07:49:46.446Z,87.00
2022-08-02T07:52:13.820Z,86.90
2022-08-02T07:54:41.097Z,86.70
2022-08-02T07:57:07.975Z,86.50
2022-08-02T07:59:34.871Z,86.20
2022-08-02T08:02:01.860Z,86.20
2022-08-02T08:04:28.725Z,86.30
2022-08-02T08:06:55.917Z,85.80
2022-08-02T08:09:22.921Z,85.40
2022-08-02T08:11:49.824Z,86.00
2022-08-02T08:14:17.172Z,85.80
2022-08-02T08:16:44.393Z,86.10
2022-08-02T08:19:11.304Z,86.00
2022-08-02T08:21:38.246Z,85.10
2022-08-02T08:24:05.486Z,85.10
2022-08-02T08:26:32.637Z,85.10
2022-08-02T08:29:00.594Z,84.50
2022-08-02T08:31:27.696Z,83.70
2022-08-02T08:33:54.868Z,83.90
2022-08-02T08:36:22.191Z,83.90
2022-08-02T08:38:50.197Z,83.10
2022-08-02T08:41:20.804Z,80.50
2022-08-02T08:43:51.479Z,80.50
2022-08-02T08:46:31.609Z,81.30
2022-08-02T08:49:06.812Z,81.20
2022-08-02T08:51:38.588Z,80.80
2022-08-02T08:54:07.904Z,80.80
2022-08-02T08:56:35.884Z,80.90
2022-08-02T08:59:04.425Z,79.80
2022-08-02T09:01:49.809Z,79.70
2022-08-02T09:04:18.042Z,79.40
2022-08-02T09:06:45.382Z,78.90
2022-08-02T09:09:12.296Z,76.90
2022-08-02T09:11:39.332Z,75.60
2022-08-02T09:14:06.610Z,75.90
2022-08-02T09:16:42.359Z,76.50
2022-08-02T09:19:26.712Z,76.20
2022-08-02T09:22:04.970Z,77.10
2022-08-02T09:24:45.624Z,76.20
2022-08-02T09:27:21.357Z,76.30
2022-08-02T09:30:12.666Z,76.80
2022-08-02T09:32:46.041Z,76.60
2022-08-02T09:35:15.441Z,76.30
2022-08-02T09:37:45.730Z,75.80
2022-08-02T09:40:15.804Z,74.50
2022-08-02T09:42:59.573Z,73.50
2022-08-02T09:45:34.743Z,73.70
2022-08-02T09:48:08.985Z,73.90
2022-08-02T09:50:37.395Z,73.60
2022-08-02T09:53:04.892Z,73.20
2022-08-02T09:55:32.442Z,73.40
2022-08-02T09:58:16.352Z,73.40
2022-08-02T10:00:59.032Z,74.00
2022-08-02T10:03:29.056Z,74.20
2022-08-02T10:06:11.495Z,73.00
2022-08-02T10:08:38.622Z,69.30
2022-08-02T10:11:05.914Z,68.90
2022-08-02T10:13:35.310Z,68.60
2022-08-02T10:16:03.020Z,69.40
2022-08-02T10:18:40.001Z,68.90
2022-08-02T10:21:16.623Z,68.50
2022-08-02T10:23:45.069Z,68.10
2022-08-02T10:26:17.217Z,67.60
2022-08-02T10:28:48.541Z,67.60
2022-08-02T10:31:20.844Z,68.00
2022-08-02T10:33:50.401Z,68.10
2022-08-02T10:36:19.264Z,66.70
2022-08-02T10:38:47.198Z,66.20
2022-08-02T10:41:14.161Z,64.60
2022-08-02T10:43:43.841Z,64.80
2022-08-02T10:46:33.844Z,65.20
2022-08-02T10:49:38.750Z,65.50
2022-08-02T10:52:02.966Z,65.20
2022-08-02T10:54:47.478Z,66.10
2022-08-02T10:57:21.415Z,64.80
2022-08-02T10:59:50.846Z,64.40
2022-08-02T11:02:37.113Z,64.20
2022-08-02T11:05:10.255Z,63.80
2022-08-02T11:07:40.888Z,63.20
2022-08-02T11:10:26.742Z,63.50
2022-08-02T11:13:07.493Z,64.00
2022-08-02T11:16:01.105Z,63.00
2022-08-02T11:18:52.366Z,63.40
2022-08-02T11:21:28.276Z,63.10
2022-08-02T11:23:56.391Z,63.10
2022-08-02T11:26:29.509Z,61.90
2022-08-02T11:28:57.565Z,61.20
2022-08-02T11:31:24.588Z,60.80
2022-08-02T11:33:52.733Z,61.10
2022-08-02T11:36:20.313Z,61.60
2022-08-02T11:38:49.998Z,61.30
2022-08-02T11:41:46.232Z,60.10
2022-08-02T11:44:10.560Z,60.10
2022-08-02T11:46:38.017Z,60.10
2022-08-02T11:49:18.890Z,58.40
2022-08-02T11:52:05.655Z,57.70
2022-08-02T11:54:35.702Z,56.80
2022-08-02T11:58:02.795Z,57.10
2022-08-02T12:00:19.515Z,55.20
2022-08-02T12:02:50.703Z,56.10
2022-08-02T12:05:20.465Z,54.30
2022-08-02T12:07:47.697Z,53.90
2022-08-02T12:10:19.059Z,54.10
2022-08-02T12:12:54.682Z,53.90
2022-08-02T12:15:37.441Z,53.10
2022-08-02T12:18:28.413Z,52.90
2022-08-02T12:20:55.573Z,52.60
2022-08-02T12:23:23.364Z,51.90
2022-08-02T12:26:09.514Z,51.70
2022-08-02T12:28:43.274Z,51.30
2022-08-02T12:31:13.499Z,52.00
2022-08-02T12:33:54.952Z,52.10
2022-08-02T12:36:30.677Z,52.10
2022-08-02T12:39:01.871Z,52.30
2022-08-02T12:41:32.218Z,52.00
2022-08-02T12:44:00.482Z,51.90
2022-08-02T12:46:27.889Z,52.20
2022-08-02T12:49:18.082Z,51.30
2022-08-02T12:51:50.896Z,51.60
2022-08-02T12:54:38.929Z,51.30
2022-08-02T12:57:13.976Z,51.30
2022-08-02T12:59:42.704Z,51.10
2022-08-02T13:02:12.203Z,50.80
2022-08-02T13:04:40.098Z,50.10
2022-08-02T13:07:07.248Z,50.50
2022-08-02T13:09:39.729Z,51.20
2022-08-02T13:12:07.667Z,50.60
2022-08-02T13:14:41.928Z,50.10
2022-08-02T13:17:11.941Z,50.00
2022-08-02T13:19:39.018Z,50.00
2022-08-02T13:22:08.450Z,50.40
2022-08-02T13:24:55.238Z,50.50
2022-08-02T13:27:24.963Z,50.80
2022-08-02T13:30:01.059Z,51.10
2022-08-02T13:32:29.273Z,51.30
2022-08-02T13:34:58.182Z,51.50
2022-08-02T13:37:25.820Z,51.60
2022-08-02T13:40:19.114Z,52.10
2022-08-02T13:42:44.602Z,51.70
2022-08-02T13:45:14.461Z,51.20
2022-08-02T13:47:57.543Z,50.30
2022-08-02T13:50:32.856Z,50.30
2022-08-02T13:52:59.866Z,50.60
2022-08-02T13:55:28.340Z,51.20
2022-08-02T13:57:58.756Z,51.00
2022-08-02T14:00:35.347Z,51.00
2022-08-02T14:03:04.782Z,51.50
2022-08-02T14:05:42.324Z,51.70
2022-08-02T14:08:17.257Z,52.80
2022-08-02T14:10:49.165Z,52.30
2022-08-02T14:13:17.112Z,52.70
2022-08-02T14:15:44.696Z,52.80
2022-08-02T14:18:12.622Z,52.60
2022-08-02T14:20:39.831Z,52.60
2022-08-02T14:23:07.469Z,52.40
2022-08-02T14:25:34.485Z,52.50
2022-08-02T14:28:01.691Z,53.20
2022-08-02T14:30:28.869Z,54.00
2022-08-02T14:32:56.610Z,53.40
2022-08-02T14:35:23.654Z,53.60
2022-08-02T14:37:50.724Z,53.10
2022-08-02T14:40:28.091Z,52.50
2022-08-02T14:42:59.483Z,52.60
2022-08-02T14:45:39.788Z,52.00
2022-08-02T14:48:09.024Z,51.30
2022-08-02T14:50:35.877Z,49.90
2022-08-02T14:53:02.777Z,49.30
2022-08-02T14:55:29.659Z,48.50
2022-08-02T14:57:56.580Z,48.20
2022-08-02T15:00:23.442Z,47.70
2022-08-02T15:02:50.403Z,46.70
2022-08-02T15:05:17.357Z,45.40
2022-08-02T15:07:49.114Z,45.00
2022-08-02T15:10:16.654Z,45.30
2022-08-02T15:12:45.768Z,44.30
2022-08-02T15:15:12.682Z,43.90
2022-08-02T15:17:39.653Z,44.10
2022-08-02T15:20:07.288Z,44.60
2022-08-02T15:22:51.951Z,45.20
2022-08-02T15:25:19.485Z,45.10
2022-08-02T15:27:46.495Z,44.70
2022-08-02T15:30:13.617Z,44.50
2022-08-02T15:32:40.584Z,44.80
2022-08-02T15:35:20.638Z,44.30
2022-08-02T15:37:47.626Z,44.60
2022-08-02T15:40:14.596Z,45.40
2022-08-02T15:42:41.686Z,44.70
2022-08-02T15:45:13.213Z,44.80
2022-08-02T15:47:47.986Z,45.00
2022-08-02T15:50:18.632Z,44.90
2022-08-02T15:52:45.700Z,45.50
2022-08-02T15:55:12.865Z,45.90
2022-08-02T15:57:39.961Z,46.00
2022-08-02T16:00:14.194Z,45.70
2022-08-02T16:02:47.446Z,45.50
2022-08-02T16:05:15.354Z,44.90
2022-08-02T16:07:42.246Z,45.00
2022-08-02T16:10:11.717Z,44.80
2022-08-02T16:12:38.755Z,44.40
2022-08-02T16:15:06.270Z,44.40
2022-08-02T16:17:48.708Z,44.60
2022-08-02T16:20:20.124Z,45.20
2022-08-02T16:22:47.398Z,45.70
2022-08-02T16:25:17.282Z,46.30
2022-08-02T16:27:59.486Z,46.70
2022-08-02T16:30:31.632Z,46.90
2022-08-02T16:32:58.552Z,47.40
2022-08-02T16:35:25.456Z,47.70
2022-08-02T16:37:52.836Z,47.80
2022-08-02T16:40:21.461Z,47.80
2022-08-02T16:42:50.755Z,47.60
2022-08-02T16:45:20.957Z,48.30
2022-08-02T16:47:55.877Z,48.20
2022-08-02T16:50:28.185Z,48.80
2022-08-02T16:52:58.687Z,49.40
2022-08-02T16:55:30.399Z,49.20
2022-08-02T16:57:58.912Z,49.90
2022-08-02T17:00:26.037Z,50.10
2022-08-02T17:02:53.440Z,50.10
2022-08-02T17:05:20.916Z,50.70
2022-08-02T17:10:36.250Z,50.70
2022-08-02T17:13:11.339Z,51.40
2022-08-02T17:16:15.877Z,51.50
2022-08-02T17:18:29.450Z,51.70
2022-08-02T17:20:58.142Z,51.20
2022-08-02T17:23:47.207Z,50.80
2022-08-02T17:26:13.110Z,50.70
2022-08-02T17:28:56.572Z,50.30
2022-08-02T17:31:29.881Z,50.00
2022-08-02T17:33:57.127Z,49.90
2022-08-02T17:36:25.795Z,49.80
2022-08-02T17:38:53.071Z,50.20
2022-08-02T17:41:20.203Z,50.30
2022-08-02T17:44:05.496Z,50.70
2022-08-02T17:46:32.794Z,51.30
2022-08-02T17:49:19.594Z,51.50
2022-08-02T17:52:48.609Z,51.40
2022-08-02T17:54:35.435Z,52.10
2022-08-02T17:57:02.442Z,52.00
2022-08-02T17:59:41.756Z,52.60
2022-08-02T18:02:11.102Z,52.70
2022-08-02T18:04:38.856Z,53.20
2022-08-02T18:07:09.513Z,53.30
2022-08-02T18:09:39.570Z,53.40
2022-08-02T18:12:15.337Z,53.70
2022-08-02T18:14:48.941Z,54.50
2022-08-02T18:17:33.402Z,55.00
2022-08-02T18:20:07.135Z,55.60
2022-08-02T18:22:37.343Z,56.10
2022-08-02T18:25:09.545Z,56.50
2022-08-02T18:30:28.568Z,57.20
2022-08-02T18:33:58.267Z,57.40
2022-08-02T18:35:43.117Z,57.70
2022-08-02T18:38:11.763Z,58.10
2022-08-02T18:40:39.291Z,58.30
2022-08-02T18:46:05.309Z,57.90
2022-08-02T18:48:38.418Z,57.70
2022-08-02T18:51:06.430Z,58.00
2022-08-02T18:53:41.957Z,58.40
2022-08-02T18:56:19.744Z,59.00
2022-08-02T18:58:52.255Z,59.00
2022-08-02T19:01:32.299Z,58.90
2022-08-02T19:04:08.700Z,59.30
2022-08-02T19:06:36.029Z,59.40
2022-08-02T19:09:10.438Z,59.50
2022-08-02T19:11:47.370Z,59.80
2022-08-02T19:14:24.187Z,60.20
2022-08-02T19:16:59.559Z,60.40
2022-08-02T19:19:29.124Z,60.70
2022-08-02T19:22:15.999Z,60.60
2022-08-02T19:24:46.056Z,61.00
2022-08-02T19:27:15.058Z,61.10
2022-08-02T19:29:50.755Z,61.30
2022-08-02T19:32:40.218Z,61.50
2022-08-02T19:35:19.311Z,62.00
2022-08-02T19:37:59.005Z,61.90
2022-08-02T19:40:29.617Z,61.80
2022-08-02T19:44:25.302Z,61.90
2022-08-02T19:45:49.802Z,62.10
2022-08-02T19:48:23.730Z,62.20
2022-08-02T19:50:56.563Z,62.00
2022-08-02T19:53:28.725Z,61.60
2022-08-02T19:55:59.488Z,62.10
2022-08-02T19:58:30.505Z,62.00
2022-08-02T20:00:58.855Z,61.50
2022-08-02T20:03:50.730Z,61.50
2022-08-02T20:06:13.735Z,61.70
2022-08-02T20:08:45.375Z,62.10
2022-08-02T20:11:22.190Z,61.90
2022-08-02T20:13:52.577Z,62.00
2022-08-02T20:16:27.443Z,62.10
2022-08-02T20:18:58.731Z,62.40
2022-08-02T20:21:35.803Z,63.00
2022-08-02T20:24:17.965Z,63.10
2022-08-02T20:26:47.548Z,63.20
2022-08-02T20:29:15.424Z,63.50
2022-08-02T20:32:02.719Z,62.80
2022-08-02T20:34:29.613Z,62.60
2022-08-02T20:36:56.641Z,62.60
2022-08-02T20:39:24.183Z,62.90
2022-08-02T20:42:23.232Z,62.90
2022-08-02T20:44:54.966Z,63.00
2022-08-02T20:47:27.677Z,63.10
2022-08-02T20:50:15.328Z,63.20
2022-08-02T20:52:44.217Z,63.30
2022-08-02T20:55:17.341Z,63.50
2022-08-02T20:58:00.561Z,64.00
2022-08-02T21:00:28.415Z,64.40
2022-08-02T21:02:55.720Z,64.60
2022-08-02T21:05:26.914Z,65.00
2022-08-02T21:08:14.060Z,65.40
2022-08-02T21:10:43.608Z,65.70
2022-08-02T21:13:18.937Z,65.90
2022-08-02T21:15:51.528Z,65.90
2022-08-02T21:18:22.947Z,65.90
2022-08-02T21:21:04.856Z,66.20
2022-08-02T21:23:36.556Z,66.40
2022-08-02T21:26:06.630Z,66.80
2022-08-02T21:28:44.908Z,66.90
2022-08-02T21:31:16.049Z,67.00
2022-08-02T21:33:55.221Z,66.60
2022-08-02T21:36:33.058Z,67.00
2022-08-02T21:39:04.775Z,67.20
2022-08-02T21:41:38.862Z,67.50
2022-08-02T21:44:13.227Z,67.90
2022-08-02T21:46:40.873Z,68.30
2022-08-02T21:49:11.423Z,68.40
2022-08-02T21:51:39.744Z,68.40
2022-08-02T21:54:17.646Z,68.50
2022-08-02T21:56:52.029Z,68.50
2022-08-02T21:59:25.987Z,69.30
2022-08-02T22:01:56.930Z,68.90
2022-08-02T22:04:26.171Z,68.80
2022-08-02T22:06:57.010Z,68.80
2022-08-02T22:09:44.309Z,68.80
2022-08-02T22:12:17.599Z,68.80
2022-08-02T22:14:49.518Z,68.90
2022-08-02T22:17:52.715Z,69.00
2022-08-02T22:20:18.371Z,69.20
2022-08-02T22:22:50.527Z,69.50
2022-08-02T22:25:27.066Z,69.70
2022-08-02T22:28:38.890Z,70.00
2022-08-02T22:30:54.047Z,70.10
2022-08-02T22:33:42.122Z,70.50
2022-08-02T22:36:13.701Z,70.70
2022-08-02T22:38:46.815Z,70.80
2022-08-02T22:41:14.828Z,71.00
2022-08-02T22:43:42.644Z,71.20
2022-08-02T22:46:10.297Z,71.20
2022-08-02T22:48:42.623Z,71.40
2022-08-02T22:51:11.498Z,71.40
2022-08-02T22:53:40.763Z,71.50
2022-08-02T22:56:08.050Z,71.50
2022-08-02T22:58:36.989Z,50.80
2022-08-02T22:58:45.271Z,58.00
2022-08-02T22:58:57.317Z,56.80
2022-08-02T22:59:06.519Z,71.30
2022-08-02T23:01:22.598Z,71.40
2022-08-02T23:03:49.801Z,71.60
2022-08-02T23:06:19.188Z,71.60
2022-08-02T23:08:50.056Z,71.50
2022-08-02T23:11:17.007Z,71.70
2022-08-02T23:13:44.140Z,72.00
2022-08-02T23:16:29.928Z,72.20
2022-08-02T23:19:15.294Z,72.10
2022-08-02T23:22:01.539Z,72.20
2022-08-02T23:24:30.571Z,72.10
2022-08-02T23:26:57.469Z,72.10
2022-08-02T23:29:24.496Z,72.20
2022-08-02T23:31:51.441Z,72.20
2022-08-02T23:34:19.847Z,72.20
2022-08-02T23:36:46.852Z,72.30
2022-08-02T23:39:13.890Z,72.30
2022-08-02T23:41:41.040Z,72.30
2022-08-02T23:44:15.622Z,72.00
2022-08-02T23:46:46.880Z,72.00
2022-08-02T23:49:16.178Z,72.10
2022-08-02T23:51:46.540Z,72.30
2022-08-02T23:54:14.156Z,72.10
2022-08-02T23:56:44.060Z,72.30
2022-08-02T23:59:11.406Z,72.00
